createdAt,value
2022-10-14T00:01:10.537Z,4.80
2022-10-14T00:03:52.938Z,4.80
2022-10-14T00:06:23.056Z,4.70
2022-10-14T00:08:50.048Z,4.70
2022-10-14T00:11:23.260Z,4.70
2022-10-14T00:13:54.317Z,4.60
2022-10-14T00:16:28.174Z,4.50
2022-10-14T00:18:56.222Z,4.60
2022-10-14T00:21:23.430Z,4.50
2022-10-14T00:23:50.371Z,4.50
2022-10-14T00:26:26.085Z,4.50
2022-10-14T00:28:54.075Z,4.40
2022-10-14T00:31:21.505Z,4.40
2022-10-14T00:33:48.674Z,4.40
2022-10-14T00:36:18.061Z,4.40
2022-10-14T00:38:46.270Z,4.30
2022-10-14T00:41:17.130Z,4.30
2022-10-14T00:44:11.247Z,4.30
2022-10-14T00:46:43.571Z,4.30
2022-10-14T00:49:20.553Z,4.30
2022-10-14T00:52:06.163Z,4.40
2022-10-14T00:54:41.199Z,4.40
2022-10-14T00:57:10.131Z,4.40
2022-10-14T00:59:37.479Z,4.40
2022-10-14T01:02:04.564Z,4.40
2022-10-14T01:04:31.993Z,4.40
2022-10-14T01:07:16.002Z,4.50
2022-10-14T01:10:04.199Z,4.60
2022-10-14T01:13:15.802Z,4.60
2022-10-14T01:15:51.763Z,4.60
2022-10-14T01:18:45.437Z,4.60
2022-10-14T01:21:35.806Z,4.60
2022-10-14T01:24:23.355Z,4.70
2022-10-14T01:27:13.951Z,4.70
2022-10-14T01:29:59.603Z,4.80
2022-10-14T01:32:29.979Z,4.90
2022-10-14T01:35:08.225Z,4.90
2022-10-14T01:37:39.573Z,5.00
2022-10-14T01:40:12.590Z,5.10
2022-10-14T01:42:41.484Z,5.10
2022-10-14T01:45:13.616Z,5.20
2022-10-14T01:47:41.814Z,5.10
2022-10-14T01:50:21.422Z,5.10
2022-10-14T01:52:58.295Z,5.10
2022-10-14T01:55:28.453Z,5.00
2022-10-14T01:57:57.505Z,5.00
2022-10-14T02:00:24.481Z,4.90
2022-10-14T02:02:51.335Z,4.90
2022-10-14T02:05:34.017Z,5.00
2022-10-14T02:08:42.038Z,5.00
2022-10-14T02:11:15.417Z,5.00
2022-10-14T02:13:51.329Z,5.00
2022-10-14T02:16:30.361Z,5.00
2022-10-14T02:19:27.857Z,5.10
2022-10-14T02:22:07.690Z,5.10
2022-10-14T02:24:42.459Z,5.10
2022-10-14T02:27:14.119Z,5.10
2022-10-14T02:29:43.761Z,5.10
2022-10-14T02:32:18.898Z,5.10
2022-10-14T02:34:49.611Z,5.10
2022-10-14T02:37:18.265Z,5.00
2022-10-14T02:39:52.074Z,4.90
2022-10-14T02:42:19.448Z,4.90
2022-10-14T02:44:58.147Z,4.80
2022-10-14T02:47:26.033Z,4.90
2022-10-14T02:49:53.213Z,4.90
2022-10-14T02:52:20.658Z,5.00
2022-10-14T02:54:47.942Z,5.00
2022-10-14T02:57:14.807Z,5.00
2022-10-14T02:59:41.729Z,5.00
2022-10-14T03:02:09.122Z,5.00
2022-10-14T03:04:36.437Z,5.10
2022-10-14T03:07:04.307Z,5.10
2022-10-14T03:09:31.122Z,5.10
2022-10-14T03:11:58.205Z,5.20
2022-10-14T03:14:25.113Z,5.20
2022-10-14T03:16:52.230Z,5.20
2022-10-14T03:19:19.113Z,5.20
2022-10-14T03:21:46.000Z,5.30
2022-10-14T03:24:13.161Z,5.30
2022-10-14T03:26:40.293Z,5.30
2022-10-14T03:29:07.441Z,5.30
2022-10-14T03:31:34.325Z,5.30
2022-10-14T03:34:01.204Z,5.30
2022-10-14T03:36:28.262Z,5.40
2022-10-14T03:38:55.133Z,5.40
2022-10-14T03:41:22.310Z,5.40
2022-10-14T03:43:49.323Z,5.50
2022-10-14T03:46:16.159Z,5.50
2022-10-14T03:48:43.059Z,5.60
2022-10-14T03:51:10.421Z,5.60
2022-10-14T03:53:37.291Z,5.60
2022-10-14T03:56:04.523Z,5.60
2022-10-14T03:58:31.576Z,5.60
2022-10-14T04:00:58.512Z,5.70
2022-10-14T04:03:25.660Z,5.70
2022-10-14T04:05:52.539Z,5.80
2022-10-14T04:08:19.541Z,5.80
2022-10-14T04:10:51.317Z,5.90
2022-10-14T04:13:18.437Z,5.90
2022-10-14T04:15:45.289Z,5.90
2022-10-14T04:18:12.323Z,6.00
2022-10-14T04:20:40.027Z,5.90
2022-10-14T04:23:07.436Z,5.90
2022-10-14T04:25:36.951Z,6.00
2022-10-14T04:28:03.934Z,6.00
2022-10-14T04:30:30.821Z,6.00
2022-10-14T04:32:57.893Z,6.00
2022-10-14T04:35:24.756Z,6.10
2022-10-14T04:37:51.608Z,6.10
2022-10-14T04:40:20.566Z,6.20
2022-10-14T04:42:47.373Z,6.20
2022-10-14T04:45:14.200Z,6.20
2022-10-14T04:47:46.173Z,6.20
2022-10-14T04:50:15.404Z,6.20
2022-10-14T04:52:42.705Z,6.20
2022-10-14T04:55:09.789Z,6.10
2022-10-14T04:57:39.668Z,6.00
2022-10-14T05:00:07.207Z,6.00
2022-10-14T05:02:34.093Z,5.90
2022-10-14T05:05:01.377Z,5.90
2022-10-14T05:07:28.353Z,5.80
2022-10-14T05:09:56.686Z,5.80
2022-10-14T05:12:24.213Z,5.80
2022-10-14T05:14:51.242Z,5.80
2022-10-14T05:17:18.414Z,5.80
2022-10-14T05:19:45.308Z,5.80
2022-10-14T05:22:12.273Z,5.70
2022-10-14T05:24:41.647Z,5.60
2022-10-14T05:27:08.834Z,5.60
2022-10-14T05:29:36.200Z,5.50
2022-10-14T05:32:03.194Z,5.50
2022-10-14T05:34:30.073Z,5.50
2022-10-14T05:36:57.510Z,5.50
2022-10-14T05:39:24.499Z,5.50
2022-10-14T05:41:51.356Z,5.50
2022-10-14T05:44:18.724Z,5.60
2022-10-14T05:46:45.728Z,5.60
2022-10-14T05:49:13.099Z,5.60
2022-10-14T05:51:40.066Z,5.60
2022-10-14T05:54:06.967Z,5.70
2022-10-14T05:56:34.275Z,5.80
2022-10-14T05:59:01.216Z,5.90
2022-10-14T06:01:28.085Z,6.00
2022-10-14T06:03:55.167Z,6.30
2022-10-14T06:06:25.368Z,6.70
2022-10-14T06:08:56.646Z,7.10
2022-10-14T06:11:23.725Z,7.30
2022-10-14T06:13:50.590Z,7.40
2022-10-14T06:16:17.570Z,7.60
2022-10-14T06:18:44.882Z,8.10
2022-10-14T06:21:12.688Z,8.70
2022-10-14T06:23:39.600Z,9.30
2022-10-14T06:26:08.987Z,10.00
2022-10-14T06:28:36.722Z,10.80
2022-10-14T06:31:03.869Z,11.10
2022-10-14T06:33:31.207Z,10.70
2022-10-14T06:35:58.488Z,10.40
2022-10-14T06:38:25.593Z,10.20
2022-10-14T06:40:54.434Z,10.50
2022-10-14T06:43:22.345Z,11.70
2022-10-14T06:45:49.870Z,12.90
2022-10-14T06:48:17.030Z,14.10
2022-10-14T06:50:44.090Z,15.00
2022-10-14T06:53:11.033Z,15.70
2022-10-14T06:55:38.413Z,16.40
2022-10-14T06:58:05.318Z,16.40
2022-10-14T07:00:32.262Z,15.40
2022-10-14T07:02:59.547Z,14.40
2022-10-14T07:05:27.094Z,13.70
2022-10-14T07:07:54.371Z,12.80
2022-10-14T07:10:21.418Z,12.10
2022-10-14T07:12:48.592Z,11.50
2022-10-14T07:15:15.834Z,11.00
2022-10-14T07:17:43.078Z,10.60
2022-10-14T07:20:12.182Z,10.70
2022-10-14T07:22:39.291Z,11.30
2022-10-14T07:25:07.269Z,12.10
2022-10-14T07:27:34.397Z,13.40
2022-10-14T07:30:01.763Z,15.20
2022-10-14T07:32:29.054Z,17.20
2022-10-14T07:34:55.957Z,18.80
2022-10-14T07:37:23.841Z,20.40
2022-10-14T07:39:51.527Z,21.70
2022-10-14T07:44:45.914Z,21.20
2022-10-14T07:47:13.202Z,20.60
2022-10-14T07:49:40.093Z,21.00
2022-10-14T07:52:07.017Z,21.70
2022-10-14T07:54:34.094Z,22.70
2022-10-14T07:57:00.992Z,23.30
2022-10-14T07:59:27.958Z,23.60
2022-10-14T08:01:56.716Z,24.20
2022-10-14T08:04:25.265Z,25.00
2022-10-14T08:06:52.734Z,25.40
2022-10-14T08:09:20.368Z,26.00
2022-10-14T08:11:47.908Z,26.70
2022-10-14T08:14:15.350Z,27.20
2022-10-14T08:16:42.342Z,27.20
2022-10-14T08:19:14.667Z,26.20
2022-10-14T08:21:43.487Z,26.40
2022-10-14T08:24:10.689Z,27.00
2022-10-14T08:26:58.995Z,27.80
2022-10-14T08:29:26.962Z,28.40
2022-10-14T08:31:55.305Z,29.00
2022-10-14T08:34:24.334Z,29.40
2022-10-14T08:36:51.931Z,29.80
2022-10-14T08:39:19.546Z,30.00
2022-10-14T08:42:07.900Z,30.20
2022-10-14T08:45:01.431Z,30.30
2022-10-14T08:47:37.135Z,30.40
2022-10-14T08:50:25.763Z,30.70
2022-10-14T08:52:57.748Z,30.80
2022-10-14T08:55:36.849Z,30.90
2022-10-14T08:58:28.706Z,31.00
2022-10-14T09:00:57.087Z,30.90
2022-10-14T09:03:33.149Z,30.90
2022-10-14T09:06:07.148Z,31.00
2022-10-14T09:08:46.286Z,31.30
2022-10-14T09:11:21.424Z,31.30
2022-10-14T09:13:55.974Z,31.10
2022-10-14T09:16:29.667Z,31.20
2022-10-14T09:19:15.034Z,31.50
2022-10-14T09:21:52.658Z,31.70
2022-10-14T09:24:35.666Z,31.00
2022-10-14T09:27:22.990Z,30.30
2022-10-14T09:30:01.541Z,30.80
2022-10-14T09:32:36.408Z,31.40
2022-10-14T09:35:04.386Z,32.10
2022-10-14T09:37:36.854Z,32.20
2022-10-14T09:40:12.692Z,32.50
2022-10-14T09:43:04.977Z,32.90
2022-10-14T09:45:47.023Z,31.90
2022-10-14T09:48:22.796Z,29.60
2022-10-14T09:50:53.243Z,27.20
2022-10-14T09:53:45.374Z,25.10
2022-10-14T09:56:13.071Z,23.20
2022-10-14T09:58:47.219Z,21.70
2022-10-14T10:01:16.943Z,20.70
2022-10-14T10:03:45.938Z,19.90
2022-10-14T10:06:16.008Z,19.30
2022-10-14T10:08:55.982Z,19.00
2022-10-14T10:11:37.818Z,18.80
2022-10-14T10:14:21.268Z,18.50
2022-10-14T10:19:29.405Z,18.60
2022-10-14T10:22:26.703Z,18.80
2022-10-14T10:25:03.421Z,19.10
2022-10-14T10:27:45.856Z,19.10
2022-10-14T10:30:21.484Z,18.80
2022-10-14T10:33:27.386Z,18.60
2022-10-14T10:36:13.323Z,18.40
2022-10-14T10:39:16.137Z,18.30
2022-10-14T10:41:58.475Z,18.00
2022-10-14T10:44:34.936Z,17.80
2022-10-14T10:47:39.562Z,17.90
2022-10-14T10:50:20.995Z,18.20
2022-10-14T10:53:25.520Z,18.50
2022-10-14T10:56:13.697Z,18.70
2022-10-14T10:59:06.688Z,18.80
2022-10-14T11:01:46.245Z,18.70
2022-10-14T11:04:15.902Z,18.80
2022-10-14T11:07:29.785Z,19.00
2022-10-14T11:10:27.500Z,19.00
2022-10-14T11:13:06.105Z,18.90
2022-10-14T11:15:39.079Z,18.90
2022-10-14T11:18:21.776Z,18.70
2022-10-14T11:24:02.158Z,18.50
2022-10-14T11:26:47.352Z,18.40
2022-10-14T11:29:35.353Z,18.30
2022-10-14T11:32:25.201Z,18.30
2022-10-14T11:35:07.375Z,18.30
2022-10-14T11:37:41.938Z,18.30
2022-10-14T11:40:22.508Z,18.20
2022-10-14T11:43:02.749Z,18.10
2022-10-14T11:45:56.977Z,18.10
2022-10-14T11:48:33.623Z,18.20
2022-10-14T11:51:19.609Z,18.30
2022-10-14T11:53:59.657Z,18.40
2022-10-14T11:56:31.999Z,18.70
2022-10-14T11:59:03.685Z,18.90
2022-10-14T12:01:38.107Z,19.00
2022-10-14T12:04:12.784Z,19.00
2022-10-14T12:06:47.768Z,18.80
2022-10-14T12:09:20.217Z,18.50
2022-10-14T12:11:58.784Z,18.10
2022-10-14T12:14:46.120Z,17.80
2022-10-14T12:17:21.947Z,17.50
2022-10-14T12:19:49.790Z,17.40
2022-10-14T12:22:20.244Z,17.30
2022-10-14T12:24:52.114Z,17.50
2022-10-14T12:27:21.700Z,17.80
2022-10-14T12:29:51.064Z,18.00
2022-10-14T12:32:21.217Z,18.10
2022-10-14T12:34:51.444Z,18.10
2022-10-14T12:37:28.738Z,18.10
2022-10-14T12:40:07.330Z,18.10
2022-10-14T12:42:35.234Z,18.00
2022-10-14T12:45:14.637Z,17.90
2022-10-14T12:47:42.500Z,17.80
2022-10-14T12:50:15.673Z,17.60
2022-10-14T12:52:47.026Z,17.50
2022-10-14T12:55:20.617Z,17.30
2022-10-14T12:58:03.080Z,17.20
2022-10-14T13:00:34.558Z,17.10
2022-10-14T13:03:03.740Z,17.00
2022-10-14T13:05:42.655Z,16.90
2022-10-14T13:08:23.739Z,16.90
2022-10-14T13:11:00.352Z,17.00
2022-10-14T13:13:42.511Z,16.90
2022-10-14T13:16:25.610Z,16.90
2022-10-14T13:18:59.030Z,16.80
2022-10-14T13:21:34.977Z,16.80
2022-10-14T13:24:26.284Z,16.80
2022-10-14T13:26:53.813Z,16.90
2022-10-14T13:29:20.999Z,16.90
2022-10-14T13:32:12.498Z,16.90
2022-10-14T13:35:04.145Z,16.90
2022-10-14T13:37:43.443Z,16.90
2022-10-14T13:40:34.491Z,16.80
2022-10-14T13:43:12.179Z,16.80
2022-10-14T13:45:45.183Z,16.70
2022-10-14T13:48:43.859Z,16.60
2022-10-14T13:51:36.901Z,16.60
2022-10-14T13:54:16.089Z,16.50
2022-10-14T13:56:44.092Z,16.50
2022-10-14T13:59:43.170Z,16.50
2022-10-14T14:02:15.545Z,16.50
2022-10-14T14:04:49.969Z,16.40
2022-10-14T14:08:07.274Z,16.40
2022-10-14T14:10:09.733Z,16.40
2022-10-14T14:12:37.661Z,16.40
2022-10-14T14:15:05.344Z,16.50
2022-10-14T14:17:34.615Z,16.40
2022-10-14T14:20:01.868Z,16.40
2022-10-14T14:22:30.365Z,16.40
2022-10-14T14:25:35.839Z,16.30
2022-10-14T14:28:07.937Z,16.30
2022-10-14T14:30:37.395Z,16.20
2022-10-14T14:33:11.194Z,16.00
2022-10-14T14:35:38.441Z,15.90
2022-10-14T14:38:05.758Z,15.70
2022-10-14T14:40:32.642Z,15.60
2022-10-14T14:43:02.217Z,15.50
2022-10-14T14:45:32.381Z,15.30
2022-10-14T14:48:06.723Z,15.20
2022-10-14T14:50:35.864Z,15.10
2022-10-14T14:53:10.387Z,15.00
2022-10-14T14:55:45.064Z,15.00
2022-10-14T14:58:43.812Z,14.90
2022-10-14T15:01:26.212Z,14.90
2022-10-14T15:04:13.243Z,14.90
2022-10-14T15:06:51.086Z,14.90
2022-10-14T15:09:41.316Z,14.80
2022-10-14T15:12:17.402Z,14.70
2022-10-14T15:14:54.948Z,14.60
2022-10-14T15:17:34.136Z,14.50
2022-10-14T15:20:39.194Z,14.40
2022-10-14T15:23:37.415Z,14.30
2022-10-14T15:26:06.892Z,14.20
2022-10-14T15:28:34.249Z,14.10
2022-10-14T15:31:04.714Z,14.00
2022-10-14T15:33:33.017Z,13.80
2022-10-14T15:36:02.163Z,13.70
2022-10-14T15:41:04.291Z,13.50
2022-10-14T15:43:32.502Z,13.40
2022-10-14T15:46:18.755Z,13.30
2022-10-14T15:48:55.024Z,13.30
2022-10-14T15:51:23.552Z,13.20
2022-10-14T15:53:52.009Z,13.30
2022-10-14T15:56:21.064Z,13.20
2022-10-14T15:58:49.253Z,13.20
2022-10-14T16:01:22.162Z,13.20
2022-10-14T16:03:52.026Z,13.30
2022-10-14T16:06:19.440Z,13.30
2022-10-14T16:08:49.631Z,13.30
2022-10-14T16:11:28.191Z,13.30
2022-10-14T16:13:55.168Z,13.30
2022-10-14T16:16:34.254Z,13.20
2022-10-14T16:19:04.916Z,13.10
2022-10-14T16:21:33.091Z,13.00
2022-10-14T16:24:02.272Z,12.90
2022-10-14T16:26:29.459Z,12.80
2022-10-14T16:28:57.340Z,12.60
2022-10-14T16:31:24.392Z,12.50
2022-10-14T16:33:52.632Z,12.40
2022-10-14T16:36:21.369Z,12.30
2022-10-14T16:38:48.229Z,12.20
2022-10-14T16:41:15.171Z,12.20
2022-10-14T16:43:42.258Z,12.20
2022-10-14T16:46:13.204Z,12.10
2022-10-14T16:48:42.853Z,12.10
2022-10-14T16:51:10.074Z,12.10
2022-10-14T16:53:48.703Z,12.10
2022-10-14T16:56:36.912Z,12.10
2022-10-14T16:59:04.503Z,12.10
2022-10-14T17:01:31.986Z,12.00
2022-10-14T17:03:59.251Z,12.00
2022-10-14T17:06:26.681Z,12.00
2022-10-14T17:08:54.768Z,12.10
2022-10-14T17:11:22.142Z,12.10
2022-10-14T17:13:52.872Z,12.20
2022-10-14T17:16:20.487Z,12.20
2022-10-14T17:21:20.675Z,12.30
2022-10-14T17:23:49.438Z,12.30
2022-10-14T17:26:20.806Z,12.40
2022-10-14T17:28:48.827Z,12.40
2022-10-14T17:31:19.287Z,12.30
2022-10-14T17:33:46.910Z,12.30
2022-10-14T17:36:28.985Z,12.30
2022-10-14T17:38:57.784Z,12.40
2022-10-14T17:41:26.912Z,12.40
2022-10-14T17:43:55.174Z,12.40
2022-10-14T17:46:24.876Z,12.50
2022-10-14T17:48:56.694Z,12.50
2022-10-14T17:51:25.508Z,12.50
2022-10-14T17:53:54.928Z,12.50
2022-10-14T17:56:21.855Z,12.50
2022-10-14T17:58:53.198Z,12.40
2022-10-14T18:01:37.874Z,12.40
2022-10-14T18:07:16.169Z,12.30
2022-10-14T18:09:43.632Z,12.30
2022-10-14T18:12:10.758Z,12.40
2022-10-14T18:14:38.791Z,12.30
2022-10-14T18:17:06.109Z,12.40
2022-10-14T18:19:33.548Z,12.40
2022-10-14T18:22:00.740Z,12.40
2022-10-14T18:24:27.686Z,12.40
2022-10-14T18:26:54.717Z,12.40
2022-10-14T18:29:23.221Z,12.40
2022-10-14T18:34:18.059Z,12.50
2022-10-14T18:36:45.355Z,12.40
2022-10-14T18:39:12.434Z,12.40
2022-10-14T18:41:39.728Z,12.40
2022-10-14T18:44:07.151Z,12.40
2022-10-14T18:46:36.564Z,12.40
2022-10-14T18:49:06.401Z,12.40
2022-10-14T18:51:38.252Z,12.40
2022-10-14T18:54:17.986Z,12.40
2022-10-14T18:56:46.488Z,12.40
2022-10-14T18:59:19.249Z,12.40
2022-10-14T19:01:47.050Z,12.40
2022-10-14T19:04:15.520Z,12.40
2022-10-14T19:06:48.874Z,12.30
2022-10-14T19:09:29.441Z,12.30
2022-10-14T19:11:58.977Z,12.30
2022-10-14T19:14:27.014Z,12.20
2022-10-14T19:16:53.902Z,12.20
2022-10-14T19:19:20.787Z,12.20
2022-10-14T19:21:49.778Z,12.20
2022-10-14T19:24:17.275Z,12.20
2022-10-14T19:26:46.051Z,12.20
2022-10-14T19:29:15.303Z,12.20
2022-10-14T19:31:43.737Z,12.20
2022-10-14T19:34:12.929Z,12.30
2022-10-14T19:36:40.616Z,12.30
2022-10-14T19:39:09.769Z,12.30
2022-10-14T19:41:42.714Z,12.30
2022-10-14T19:44:10.722Z,12.30
2022-10-14T19:46:40.171Z,12.20
2022-10-14T19:49:07.089Z,12.20
2022-10-14T19:51:35.045Z,12.20
2022-10-14T19:54:02.549Z,12.20
2022-10-14T19:56:29.613Z,12.20
2022-10-14T19:58:58.683Z,12.20
2022-10-14T20:01:28.661Z,12.20
2022-10-14T20:03:56.199Z,12.10
2022-10-14T20:06:23.913Z,12.10
2022-10-14T20:08:51.382Z,12.10
2022-10-14T20:11:22.358Z,12.10
2022-10-14T20:13:49.423Z,12.00
2022-10-14T20:16:17.297Z,12.00
2022-10-14T20:18:44.334Z,12.00
2022-10-14T20:21:13.602Z,11.90
2022-10-14T20:23:41.067Z,12.00
2022-10-14T20:26:13.960Z,11.90
2022-10-14T20:28:42.122Z,11.90
2022-10-14T20:31:11.385Z,11.90
2022-10-14T20:33:38.415Z,11.90
2022-10-14T20:36:08.634Z,11.90
2022-10-14T20:38:38.084Z,11.90
2022-10-14T20:41:11.743Z,11.90
2022-10-14T20:43:39.870Z,11.90
2022-10-14T20:46:06.879Z,11.80
2022-10-14T20:48:34.071Z,11.80
2022-10-14T20:51:05.662Z,11.80
2022-10-14T20:53:34.390Z,11.70
2022-10-14T20:56:03.450Z,11.60
2022-10-14T20:58:30.818Z,11.50
2022-10-14T21:01:15.602Z,11.40
2022-10-14T21:03:44.598Z,11.40
2022-10-14T21:06:14.802Z,11.30
2022-10-14T21:08:42.056Z,11.20
2022-10-14T21:11:14.968Z,11.20
2022-10-14T21:13:50.848Z,11.10
2022-10-14T21:16:24.407Z,11.10
2022-10-14T21:18:57.605Z,11.10
2022-10-14T21:21:27.466Z,11.10
2022-10-14T21:23:56.417Z,11.10
2022-10-14T21:26:23.701Z,11.10
2022-10-14T21:28:51.772Z,11.20
2022-10-14T21:31:19.535Z,11.20
2022-10-14T21:33:55.673Z,11.30
2022-10-14T21:36:23.354Z,11.30
2022-10-14T21:38:50.305Z,11.30
2022-10-14T21:41:17.237Z,11.30
2022-10-14T21:43:44.319Z,11.30
2022-10-14T21:46:14.112Z,11.30
2022-10-14T21:48:42.154Z,11.30
2022-10-14T21:51:12.686Z,11.30
2022-10-14T21:53:42.370Z,11.30
2022-10-14T21:56:10.703Z,11.20
2022-10-14T21:58:38.806Z,11.20
2022-10-14T22:01:17.819Z,11.20
2022-10-14T22:03:45.369Z,11.30
2022-10-14T22:06:16.465Z,11.20
2022-10-14T22:08:48.170Z,11.30
2022-10-14T22:11:19.363Z,11.30
2022-10-14T22:13:46.791Z,11.30
2022-10-14T22:16:16.849Z,11.30
2022-10-14T22:18:46.772Z,11.20
2022-10-14T22:21:15.577Z,11.30
2022-10-14T22:23:43.208Z,11.20
2022-10-14T22:26:16.002Z,11.20
2022-10-14T22:28:43.492Z,11.20
2022-10-14T22:31:12.319Z,11.20
2022-10-14T22:33:40.571Z,11.30
2022-10-14T22:36:19.507Z,11.20
2022-10-14T22:38:51.152Z,11.20
2022-10-14T22:41:18.914Z,11.30
2022-10-14T22:43:51.510Z,11.30
2022-10-14T22:46:20.816Z,11.20
2022-10-14T22:48:48.655Z,11.10
2022-10-14T22:51:18.355Z,11.00
2022-10-14T22:53:46.352Z,10.90
2022-10-14T22:56:17.103Z,10.80
2022-10-14T22:58:44.406Z,10.70
2022-10-14T23:01:14.619Z,10.60
2022-10-14T23:03:42.196Z,10.60
2022-10-14T23:06:12.351Z,10.50
2022-10-14T23:08:40.163Z,10.40
2022-10-14T23:11:07.772Z,10.30
2022-10-14T23:13:34.791Z,10.20
2022-10-14T23:16:04.332Z,10.10
2022-10-14T23:18:34.407Z,10.10
2022-10-14T23:21:16.265Z,10.10
2022-10-14T23:23:44.333Z,10.20
2022-10-14T23:26:13.158Z,10.30
2022-10-14T23:28:41.205Z,10.30
2022-10-14T23:31:19.393Z,10.40
2022-10-14T23:33:47.559Z,10.50
2022-10-14T23:36:16.228Z,10.50
2022-10-14T23:38:43.260Z,10.60
2022-10-14T23:41:11.756Z,10.70
2022-10-14T23:43:39.667Z,10.70
2022-10-14T23:46:07.494Z,10.80
2022-10-14T23:48:34.934Z,10.80
2022-10-14T23:51:02.290Z,10.80
2022-10-14T23:53:29.459Z,10.80
2022-10-14T23:55:57.113Z,10.80
2022-10-14T23:58:25.383Z,10.80
